AirNav   Textron
 
 1531 users online  

MI66 Michigan International Speedway Heliport
Brooklyn, Michigan, USA


FAA INFORMATION EFFECTIVE 20 JULY 2017

Location

FAA Identifier: MI66
Lat/Long: 42-03-32.0000N / 084-14-21.6000W
42-03.533333N / 084-14.360000W
42.0588889 / -84.2393333
(estimated)
Elevation: 1000 ft. / 305 m (estimated)
From city: 2 miles S of BROOKLYN, MI
Time zone: UTC -4 (UTC -5 during Standard Time)
Zip code: 49230

Heliport Operations

Heliport use: Private use. Permission required prior to landing
Activation date: 05/2006
Control tower: no
ARTCC: CLEVELAND CENTER
FSS: LANSING FLIGHT SERVICE STATION
Attendance: INTMT
ATTENDED RACE EVENT WEEKENDS ONLY.
Wind indicator: lighted
Segmented circle: no

Heliport Communications

WX ASOS at ADG (14 nm SE): 118.375 (517-265-9089)
WX ASOS at JXN (16 nm NW): PHONE 517-768-7506
WX AWOS-3 at JYM (18 nm SW): 121.025 (517-437-5638)

Nearby radio navigation aids

VOR radial/distance  VOR name  Freq  Var
JXNr146/15.5JACKSON VOR/DME109.6005W
LFDr096/23.4LITCHFIELD VOR/DME111.2005W
CRLr274/34.8CARLETON VORTAC115.7003W
SVMr237/35.5SALEM VORTAC114.3003W
DXOr263/39.9DETROIT VOR/DME113.4006W

 
NDB name  Hdg/Dist  Freq  Var  ID
ADRIAN334/13.427806WADG .- -.. --.
TECUMSEH281/15.823906WTCU - -.-. ..-

Heliport Services

Runway Information

Helipad H1

Dimensions: 35 x 35 ft. / 11 x 11 m
Surface: turf
Runway edge lights: PERI
H1, H2 & H3 LGTS ON PRIOR REQ, CALL 517-592-6666.
Operational restrictions: CIRCULAR HELIPAD.
Traffic pattern: leftleft

Helipad H2

Dimensions: 35 x 35 ft. / 11 x 11 m
Surface: turf
Runway edge lights: PERI
Operational restrictions: CIRCULAR HELIPAD.
Traffic pattern: leftleft

Helipad H3

Dimensions: 35 x 35 ft. / 11 x 11 m
Surface: turf
Runway edge lights: PERI
Operational restrictions: CIRCULAR HELIPAD.
Traffic pattern: leftleft

Heliport Ownership and Management from official FAA records

Ownership: Privately-owned
Owner: INTERNATIONAL SPEEDWAY CORP
12626 US HWY 12
BROOKLYN, MI 49230
Phone 577-592-6666
Manager: TONY NAGORSEN
12626 US HWY 12
BROOKLYN, MI 49230
Phone 517-592-6666
ADDITIONAL CONTACT: TIM LAMB 517-592-1411 TLAMB@MISPEEDWAT.COM

Additional Remarks

AUTHORIZED HELICOPTER OPS ONLY.
TMPRY FLT RESTRICTION IN EFFECT 1 HR BEFORE TO 1 HR AFTER SCHEDULED RACE. WAIVER REQUIRED.
INTENSIVE HELICOPTER ACTIVITY RACE WKENDS.
FREQ 123.025 MONITORED RACE EVENTS WEEKENDS ONLY.

Instrument Procedures

There are no published instrument procedures at MI66.

Some nearby airports with instrument procedures:

3TE - Al Meyers Airport (14 nm E)
KADG - Lenawee County Airport (14 nm SE)
KJXN - Jackson County Airport-Reynolds Field (16 nm NW)
KJYM - Hillsdale Municipal Airport (18 nm SW)
KARB - Ann Arbor Municipal Airport (24 nm NE)
 
Loc | Ops | Rwys | IFR | FBO | Links
Com | Nav | Svcs | Stats | Notes

City of Findlay
 
Area around MI66 (Michigan International Speedway Heliport)
 
Road maps at: MapQuest Bing Google
 
Aerial photo
No photo
 
Sectional chart

 
Airport distance calculator
Flying to Michigan International Speedway Heliport? Find the distance to fly.

From to MI66

Sunrise and sunset
Times for 27-Jul-2017
 Local
(UTC-4)
 Zulu
(UTC)
Morning civil twilight05:5409:54
Sunrise06:2610:26
Sunset21:0101:01
Evening civil twilight21:3301:33

Current date and time
Zulu (UTC)  27-Jul-2017 17:00:19
Local (UTC-4)  27-Jul-2017 13:00:19
 
METAR
KADG 
13nm SE 
271653Z AUTO 00000KT 10SM BKN033 BKN047 OVC055 27/19 A2993 RMK AO2 SLP132 T02720194
KJXN 
16nm NW 
271556Z VRB05KT 10SM SCT037 BKN046 27/18 A2994 RMK AO2 SLP132 T02720178
KJYM 
18nm SW 
271634Z AUTO 02004KT 10SM SCT032 BKN060 OVC110 27/17 A2994 RMK AO2
KARB 
24nm NE 
734-668-7173
271653Z 34003KT 10SM BKN043 BKN050 28/18 A2992 RMK AO2 SLP127 T02780183
TAF
KJXN 
16nm NW 
271140Z 2712/2812 VRB03KT P6SM BKN035 FM271800 01008KT P6SM VCSH BKN040 FM280000 04005KT P6SM BKN100
NOTAMs
Click for the latest NOTAMs
NOTAMs are issued by the DoD/FAA and will open in a separate window not controlled by AirNav.

 

 
 

Would you like to see your business listed on this page?

 If your business provides an interesting product or service to pilots, flight crews, aircraft, or users of the Michigan International Speedway Heliport, you should consider listing it here.  To start the listing process, click on the button below
 
Add a business
 

Other Pages about Michigan International Speedway Heliport

Update a link
 
Copyright © AirNav, LLC. All rights reserved. Privacy Policy  Contact